createdAt,value
2018-10-21T00:01:48.392Z,61.23
2018-10-21T00:07:08.982Z,61.22
2018-10-21T00:09:37.792Z,61.54
2018-10-21T00:12:07.078Z,61.30
2018-10-21T00:14:35.963Z,61.60
2018-10-21T00:17:04.939Z,61.74
2018-10-21T00:19:34.115Z,61.35
2018-10-21T00:22:03.007Z,61.52
2018-10-21T00:24:31.755Z,61.89
2018-10-21T00:27:00.612Z,61.91
2018-10-21T00:29:29.354Z,61.96
2018-10-21T00:31:58.206Z,61.71
2018-10-21T00:34:27.047Z,62.00
2018-10-21T00:36:55.867Z,62.00
2018-10-21T00:39:25.248Z,61.98
2018-10-21T00:41:54.066Z,62.09
2018-10-21T00:44:22.886Z,61.97
2018-10-21T00:46:51.712Z,62.33
2018-10-21T00:49:20.502Z,62.30
2018-10-21T00:51:49.295Z,62.40
2018-10-21T00:54:18.453Z,62.25
2018-10-21T00:56:47.885Z,62.24
2018-10-21T00:59:16.714Z,62.61
2018-10-21T01:01:45.472Z,62.80
2018-10-21T01:04:14.383Z,62.81
2018-10-21T01:06:43.098Z,62.93
2018-10-21T01:09:13.443Z,62.89
2018-10-21T01:11:43.170Z,62.98
2018-10-21T01:14:12.042Z,63.11
2018-10-21T01:16:40.897Z,63.26
2018-10-21T01:19:09.672Z,63.33
2018-10-21T01:21:45.104Z,63.64
2018-10-21T01:24:13.858Z,63.63
2018-10-21T01:26:42.685Z,64.19
2018-10-21T01:29:11.460Z,63.91
2018-10-21T01:31:40.366Z,64.04
2018-10-21T01:34:09.202Z,64.21
2018-10-21T01:36:38.229Z,64.20
2018-10-21T01:39:09.789Z,64.37
2018-10-21T01:41:38.668Z,64.59
2018-10-21T01:44:07.509Z,64.68
2018-10-21T01:46:36.245Z,64.82
2018-10-21T01:49:05.082Z,64.93
2018-10-21T01:51:34.015Z,65.50
2018-10-21T01:54:02.873Z,65.34
2018-10-21T01:56:31.691Z,65.61
2018-10-21T01:59:00.472Z,66.00
2018-10-21T02:01:29.256Z,65.86
2018-10-21T02:03:58.478Z,66.23
2018-10-21T02:06:27.505Z,66.58
2018-10-21T02:08:56.309Z,66.28
2018-10-21T02:11:25.152Z,66.81
2018-10-21T02:13:54.031Z,66.46
2018-10-21T02:16:22.824Z,66.19
2018-10-21T02:18:51.578Z,66.27
2018-10-21T02:21:20.443Z,66.00
2018-10-21T02:23:49.248Z,66.04
2018-10-21T02:26:18.129Z,65.55
2018-10-21T02:28:46.932Z,65.44
2018-10-21T02:31:15.728Z,65.68
2018-10-21T02:33:44.882Z,65.22
2018-10-21T02:36:13.807Z,65.40
2018-10-21T02:38:42.640Z,65.58
2018-10-21T02:41:28.876Z,65.47
2018-10-21T02:43:57.616Z,65.47
2018-10-21T02:46:26.774Z,65.29
2018-10-21T02:48:56.515Z,65.27
2018-10-21T02:51:25.347Z,65.18
2018-10-21T02:53:54.103Z,65.04
2018-10-21T02:56:22.887Z,64.73
2018-10-21T02:58:51.779Z,64.81
2018-10-21T03:01:20.584Z,64.53
2018-10-21T03:03:49.435Z,64.43
2018-10-21T03:06:18.328Z,64.43
2018-10-21T03:08:47.162Z,64.31
2018-10-21T03:11:15.996Z,64.29
2018-10-21T03:13:44.919Z,63.90
2018-10-21T03:16:13.754Z,64.21
2018-10-21T03:18:42.646Z,64.45
2018-10-21T03:21:11.561Z,64.81
2018-10-21T03:23:40.330Z,64.20
2018-10-21T03:26:09.133Z,64.45
2018-10-21T03:28:37.908Z,64.22
2018-10-21T03:31:06.802Z,64.18
2018-10-21T03:33:35.554Z,64.21
2018-10-21T03:36:04.749Z,64.68
2018-10-21T03:38:33.566Z,65.08
2018-10-21T03:41:02.398Z,65.32
2018-10-21T03:43:31.151Z,65.07
2018-10-21T03:48:29.217Z,65.78
2018-10-21T03:50:57.780Z,66.14
2018-10-21T03:53:26.350Z,66.89
2018-10-21T03:55:55.288Z,66.69
2018-10-21T03:58:24.102Z,67.02
2018-10-21T04:00:52.948Z,67.12
2018-10-21T04:03:21.717Z,67.75
2018-10-21T04:05:50.435Z,68.18
2018-10-21T04:08:19.359Z,68.86
2018-10-21T04:10:48.157Z,68.80
2018-10-21T04:13:17.005Z,69.00
2018-10-21T04:15:45.864Z,68.79
2018-10-21T04:18:14.718Z,69.45
2018-10-21T04:20:43.575Z,69.48
2018-10-21T04:23:12.775Z,69.15
2018-10-21T04:25:41.770Z,68.97
2018-10-21T04:28:11.056Z,68.63
2018-10-21T04:30:40.973Z,68.85
2018-10-21T04:33:15.138Z,68.70
2018-10-21T04:35:44.212Z,68.32
2018-10-21T04:38:25.631Z,68.28
2018-10-21T04:40:54.483Z,68.28
2018-10-21T04:43:23.335Z,68.48
2018-10-21T04:45:52.246Z,69.15
2018-10-21T04:48:21.143Z,69.16
2018-10-21T04:50:49.981Z,69.23
2018-10-21T04:53:18.759Z,69.27
2018-10-21T04:55:47.533Z,69.40
2018-10-21T04:58:16.470Z,69.84
2018-10-21T05:00:45.339Z,70.05
2018-10-21T05:03:14.005Z,69.90
2018-10-21T05:05:43.102Z,69.90
2018-10-21T05:08:11.926Z,70.33
2018-10-21T05:10:40.918Z,70.45
2018-10-21T05:13:10.823Z,70.67
2018-10-21T05:15:40.566Z,70.29
2018-10-21T05:18:09.392Z,70.42
2018-10-21T05:20:38.275Z,70.15
2018-10-21T05:23:07.540Z,70.81
2018-10-21T05:25:36.391Z,70.53
2018-10-21T05:28:05.382Z,71.09
2018-10-21T05:30:36.473Z,71.21
2018-10-21T05:33:05.629Z,71.40
2018-10-21T05:35:34.393Z,71.67
2018-10-21T05:38:05.016Z,71.55
2018-10-21T05:40:40.262Z,72.04
2018-10-21T05:43:17.722Z,72.05
2018-10-21T05:45:46.703Z,72.34
2018-10-21T05:48:15.612Z,72.61
2018-10-21T05:50:44.675Z,72.63
2018-10-21T05:53:13.427Z,72.29
2018-10-21T05:55:42.273Z,72.78
2018-10-21T05:58:11.534Z,72.33
2018-10-21T06:00:40.287Z,72.67
2018-10-21T06:03:09.051Z,72.74
2018-10-21T06:05:45.369Z,72.87
2018-10-21T06:08:14.124Z,73.03
2018-10-21T06:10:44.026Z,73.61
2018-10-21T06:13:13.297Z,73.67
2018-10-21T06:15:42.378Z,73.51
2018-10-21T06:18:14.195Z,72.61
2018-10-21T06:20:45.726Z,69.48
2018-10-21T06:23:14.595Z,68.39
2018-10-21T06:25:43.423Z,68.37
2018-10-21T06:28:12.183Z,68.67
2018-10-21T06:30:42.293Z,68.98
2018-10-21T06:33:11.183Z,68.65
2018-10-21T06:35:39.968Z,68.40
2018-10-21T06:38:08.795Z,68.66
2018-10-21T06:40:37.563Z,68.47
2018-10-21T06:43:06.457Z,68.00
2018-10-21T06:45:35.381Z,66.24
2018-10-21T06:48:04.203Z,64.16
2018-10-21T06:50:32.986Z,60.41
2018-10-21T06:53:01.962Z,57.54
2018-10-21T06:55:30.692Z,53.02
2018-10-21T06:57:59.520Z,49.18
2018-10-21T07:00:28.404Z,48.39
2018-10-21T07:02:57.261Z,47.96
2018-10-21T07:06:30.862Z,47.90
2018-10-21T07:09:02.807Z,47.54
2018-10-21T07:11:31.634Z,45.17
2018-10-21T07:14:00.505Z,42.88
2018-10-21T07:16:33.514Z,42.16
2018-10-21T07:19:02.483Z,42.26
2018-10-21T07:21:31.345Z,41.54
2018-10-21T07:24:00.127Z,40.02
2018-10-21T07:26:29.078Z,39.42
2018-10-21T07:28:57.889Z,39.39
2018-10-21T07:31:26.764Z,38.18
2018-10-21T07:33:55.754Z,38.09
2018-10-21T07:36:24.718Z,37.29
2018-10-21T07:38:53.601Z,36.36
2018-10-21T07:41:22.465Z,36.55
2018-10-21T07:43:51.292Z,36.33
2018-10-21T07:46:20.254Z,36.94
2018-10-21T07:48:49.211Z,37.95
2018-10-21T07:51:18.129Z,36.16
2018-10-21T07:53:47.088Z,35.58
2018-10-21T07:56:15.895Z,36.59
2018-10-21T07:58:44.914Z,37.02
2018-10-21T08:01:13.789Z,34.63
2018-10-21T08:03:42.646Z,35.88
2018-10-21T08:06:24.538Z,35.62
2018-10-21T08:08:53.537Z,36.72
2018-10-21T08:11:22.498Z,38.40
2018-10-21T08:13:51.354Z,38.42
2018-10-21T08:16:20.323Z,38.28
2018-10-21T08:18:49.629Z,40.44
2018-10-21T08:21:18.577Z,38.74
2018-10-21T08:23:47.514Z,40.44
2018-10-21T08:26:16.414Z,40.14
2018-10-21T08:28:45.265Z,39.50
2018-10-21T08:31:14.231Z,40.51
2018-10-21T08:33:43.206Z,39.77
2018-10-21T08:36:12.040Z,38.79
2018-10-21T08:38:40.923Z,38.81
2018-10-21T08:41:09.879Z,36.87
2018-10-21T08:43:38.731Z,35.08
2018-10-21T08:46:09.138Z,36.23
2018-10-21T08:48:37.982Z,35.25
2018-10-21T08:51:06.755Z,33.53
2018-10-21T08:53:35.704Z,32.09
2018-10-21T08:56:04.575Z,32.75
2018-10-21T08:58:33.452Z,32.44
2018-10-21T09:01:02.283Z,34.24
2018-10-21T09:03:31.187Z,34.69
2018-10-21T09:06:02.729Z,33.83
2018-10-21T09:08:34.026Z,35.61
2018-10-21T09:11:03.960Z,35.54
2018-10-21T09:13:33.706Z,36.12
2018-10-21T09:16:02.731Z,35.57
2018-10-21T09:18:31.655Z,34.62
2018-10-21T09:21:00.574Z,35.21
2018-10-21T09:23:29.480Z,34.25
2018-10-21T09:25:58.265Z,32.80
2018-10-21T09:28:27.123Z,34.95
2018-10-21T09:30:55.967Z,36.74
2018-10-21T09:33:24.898Z,34.44
2018-10-21T09:35:53.709Z,32.00
2018-10-21T09:38:22.598Z,34.49
2018-10-21T09:40:51.441Z,35.16
2018-10-21T09:43:37.142Z,37.02
2018-10-21T09:46:06.208Z,39.48
2018-10-21T09:48:35.103Z,35.76
2018-10-21T09:51:04.273Z,34.18
2018-10-21T09:53:33.197Z,35.18
2018-10-21T09:56:02.165Z,37.60
2018-10-21T09:58:30.987Z,36.58
2018-10-21T10:01:05.032Z,38.42
2018-10-21T10:03:33.850Z,40.60
2018-10-21T10:06:02.834Z,40.15
2018-10-21T10:08:31.864Z,36.80
2018-10-21T10:11:00.747Z,37.59
2018-10-21T10:13:30.432Z,41.33
2018-10-21T10:15:59.357Z,38.63
2018-10-21T10:18:28.943Z,39.28
2018-10-21T10:20:58.068Z,37.02
2018-10-21T10:23:26.972Z,36.04
2018-10-21T10:25:55.842Z,36.30
2018-10-21T10:28:24.814Z,35.64
2018-10-21T10:30:53.730Z,34.38
2018-10-21T10:33:22.561Z,33.29
2018-10-21T10:35:53.719Z,34.14
2018-10-21T10:38:22.545Z,34.32
2018-10-21T10:40:51.567Z,33.29
2018-10-21T10:43:20.423Z,31.96
2018-10-21T10:45:49.262Z,33.23
2018-10-21T10:48:18.132Z,34.00
2018-10-21T10:50:47.010Z,31.03
2018-10-21T10:53:15.998Z,30.17
2018-10-21T10:55:47.540Z,31.04
2018-10-21T10:58:17.337Z,29.86
2018-10-21T11:00:47.834Z,31.38
2018-10-21T11:03:18.366Z,31.66
2018-10-21T11:05:48.040Z,31.75
2018-10-21T11:08:17.442Z,31.71
2018-10-21T11:10:47.514Z,31.74
2018-10-21T11:13:18.768Z,30.60
2018-10-21T11:15:47.857Z,31.21
2018-10-21T11:18:16.609Z,31.67
2018-10-21T11:20:45.452Z,31.42
2018-10-21T11:23:15.264Z,31.56
2018-10-21T11:25:45.218Z,31.23
2018-10-21T11:28:15.159Z,30.21
2018-10-21T11:30:45.098Z,30.98
2018-10-21T11:33:13.929Z,30.97
2018-10-21T11:35:43.876Z,30.70
2018-10-21T11:38:12.952Z,32.30
2018-10-21T11:40:41.836Z,32.49
2018-10-21T11:43:10.738Z,32.56
2018-10-21T11:45:39.902Z,32.73
2018-10-21T11:48:08.737Z,31.25
2018-10-21T11:50:39.288Z,30.37
2018-10-21T11:53:09.514Z,30.23
2018-10-21T11:55:41.389Z,30.01
2018-10-21T11:58:12.459Z,29.72
2018-10-21T12:00:41.583Z,29.56
2018-10-21T12:03:11.282Z,30.37
2018-10-21T12:05:40.831Z,29.74
2018-10-21T12:08:09.903Z,30.42
2018-10-21T12:10:40.806Z,30.05
2018-10-21T12:13:10.486Z,29.34
2018-10-21T12:15:49.632Z,29.32
2018-10-21T12:18:28.428Z,29.07
2018-10-21T12:20:57.638Z,29.27
2018-10-21T12:23:26.692Z,31.56
2018-10-21T12:25:55.487Z,29.91
2018-10-21T12:28:25.908Z,30.88
2018-10-21T12:30:54.878Z,29.09
2018-10-21T12:33:23.695Z,28.86
2018-10-21T12:35:52.589Z,28.49
2018-10-21T12:38:21.552Z,29.92
2018-10-21T12:40:51.011Z,29.52
2018-10-21T12:43:20.768Z,28.85
2018-10-21T12:45:50.186Z,29.06
2018-10-21T12:48:20.462Z,28.39
2018-10-21T12:50:50.913Z,28.94
2018-10-21T12:53:23.030Z,28.70
2018-10-21T12:55:51.913Z,28.74
2018-10-21T12:58:21.266Z,29.50
2018-10-21T13:00:50.489Z,29.89
2018-10-21T13:03:19.388Z,30.12
2018-10-21T13:05:48.260Z,31.57
2018-10-21T13:08:17.152Z,30.73
2018-10-21T13:10:47.541Z,29.43
2018-10-21T13:13:17.946Z,31.62
2018-10-21T13:16:01.762Z,30.67
2018-10-21T13:18:42.325Z,30.48
2018-10-21T13:21:18.697Z,30.52
2018-10-21T13:26:36.393Z,30.53
2018-10-21T13:29:05.291Z,30.09
2018-10-21T13:31:50.827Z,30.31
2018-10-21T13:34:35.798Z,29.84
2018-10-21T13:39:52.104Z,31.87
2018-10-21T13:42:21.449Z,32.69
2018-10-21T13:44:52.950Z,32.84
2018-10-21T13:47:23.196Z,33.17
2018-10-21T13:49:52.398Z,32.70
2018-10-21T13:52:21.849Z,32.36
2018-10-21T13:54:50.825Z,33.01
2018-10-21T13:57:20.325Z,32.68
2018-10-21T13:59:51.551Z,32.27
2018-10-21T14:02:21.730Z,32.72
2018-10-21T14:04:51.577Z,32.63
2018-10-21T14:07:22.860Z,33.99
2018-10-21T14:10:05.453Z,34.69
2018-10-21T14:12:35.904Z,34.21
2018-10-21T14:15:06.108Z,34.06
2018-10-21T14:17:35.115Z,33.47
2018-10-21T14:20:04.218Z,32.85
2018-10-21T14:22:33.190Z,33.96
2018-10-21T14:25:03.110Z,33.28
2018-10-21T14:27:32.677Z,34.30
2018-10-21T14:30:01.918Z,34.73
2018-10-21T14:32:30.858Z,34.14
2018-10-21T14:35:01.013Z,34.59
2018-10-21T14:37:31.717Z,35.19
2018-10-21T14:40:02.549Z,36.18
2018-10-21T14:42:31.709Z,35.98
2018-10-21T14:45:01.869Z,35.98
2018-10-21T14:47:31.823Z,36.85
2018-10-21T14:50:03.118Z,37.33
2018-10-21T14:52:32.325Z,37.52
2018-10-21T14:55:01.749Z,37.35
2018-10-21T14:57:31.172Z,38.05
2018-10-21T15:00:01.129Z,38.54
2018-10-21T15:02:30.650Z,38.35
2018-10-21T15:04:59.748Z,38.80
2018-10-21T15:07:29.174Z,39.01
2018-10-21T15:09:58.237Z,39.75
2018-10-21T15:12:27.280Z,40.47
2018-10-21T15:15:02.002Z,40.85
2018-10-21T15:17:38.800Z,41.71
2018-10-21T15:20:10.249Z,41.85
2018-10-21T15:22:39.258Z,42.17
2018-10-21T15:25:09.833Z,42.59
2018-10-21T15:27:39.226Z,43.09
2018-10-21T15:30:09.565Z,43.39
2018-10-21T15:32:38.706Z,43.41
2018-10-21T15:35:08.154Z,44.26
2018-10-21T15:37:37.058Z,44.87
2018-10-21T15:40:07.654Z,45.01
2018-10-21T15:42:36.927Z,45.46
2018-10-21T15:45:07.070Z,45.92
2018-10-21T15:47:36.057Z,46.08
2018-10-21T15:50:05.843Z,46.70
2018-10-21T15:52:34.929Z,47.21
2018-10-21T15:55:04.063Z,47.34
2018-10-21T15:57:33.205Z,47.66
2018-10-21T16:00:03.688Z,48.21
2018-10-21T16:02:32.891Z,49.13
2018-10-21T16:05:02.517Z,49.16
2018-10-21T16:07:31.566Z,49.76
2018-10-21T16:10:00.452Z,50.11
2018-10-21T16:12:30.371Z,50.30
2018-10-21T16:14:59.262Z,50.55
2018-10-21T16:17:28.354Z,50.83
2018-10-21T16:19:57.255Z,50.91
2018-10-21T16:22:26.107Z,50.79
2018-10-21T16:24:55.084Z,51.10
2018-10-21T16:27:24.080Z,51.29
2018-10-21T16:29:55.280Z,51.21
2018-10-21T16:32:24.917Z,51.56
2018-10-21T16:34:53.854Z,51.74
2018-10-21T16:37:22.936Z,52.24
2018-10-21T16:39:52.041Z,52.26
2018-10-21T16:42:23.604Z,52.83
2018-10-21T16:44:55.713Z,53.94
2018-10-21T16:47:24.908Z,54.81
2018-10-21T16:49:53.804Z,55.74
2018-10-21T16:52:23.672Z,56.50
2018-10-21T16:54:54.137Z,56.52
2018-10-21T16:57:24.045Z,56.20
2018-10-21T16:59:58.297Z,57.13
2018-10-21T17:02:27.800Z,57.23
2018-10-21T17:04:57.407Z,57.25
2018-10-21T17:07:26.447Z,57.24
2018-10-21T17:09:56.449Z,56.69
2018-10-21T17:12:25.450Z,57.36
2018-10-21T17:14:55.278Z,58.58
2018-10-21T17:17:24.298Z,58.91
2018-10-21T17:19:53.272Z,59.13
2018-10-21T17:22:22.249Z,59.49
2018-10-21T17:24:51.222Z,59.47
2018-10-21T17:27:21.411Z,60.06
2018-10-21T17:29:53.114Z,60.74
2018-10-21T17:32:21.979Z,60.52
2018-10-21T17:34:50.905Z,60.51
2018-10-21T17:37:19.954Z,60.79
2018-10-21T17:39:48.922Z,61.10
2018-10-21T17:42:17.919Z,60.89
2018-10-21T17:44:46.901Z,61.20
2018-10-21T17:47:15.894Z,61.30
2018-10-21T17:49:44.844Z,62.28
2018-10-21T17:52:15.608Z,62.59
2018-10-21T17:54:45.298Z,62.97
2018-10-21T17:57:14.262Z,62.48
2018-10-21T17:59:44.034Z,62.16
2018-10-21T18:02:13.079Z,62.30
2018-10-21T18:04:42.281Z,63.29
2018-10-21T18:07:12.024Z,63.60
2018-10-21T18:09:41.055Z,63.64
2018-10-21T18:12:10.224Z,63.71
2018-10-21T18:14:39.290Z,63.75
2018-10-21T18:17:08.347Z,64.14
2018-10-21T18:19:38.147Z,64.39
2018-10-21T18:22:14.060Z,64.78
2018-10-21T18:24:43.091Z,64.76
2018-10-21T18:27:12.035Z,65.74
2018-10-21T18:29:41.001Z,65.74
2018-10-21T18:32:10.605Z,66.18
2018-10-21T18:34:40.779Z,65.89
2018-10-21T18:37:10.552Z,66.16
2018-10-21T18:39:42.053Z,65.75
2018-10-21T18:42:10.998Z,66.17
2018-10-21T18:44:41.026Z,66.63
2018-10-21T18:47:10.506Z,66.51
2018-10-21T18:49:39.523Z,66.24
2018-10-21T18:52:08.810Z,67.28
2018-10-21T18:54:38.024Z,66.97
2018-10-21T18:57:07.813Z,67.27
2018-10-21T18:59:36.661Z,67.87
2018-10-21T19:02:07.778Z,67.70
2018-10-21T19:04:37.115Z,67.87
2018-10-21T19:07:08.044Z,67.64
2018-10-21T19:09:42.805Z,67.97
2018-10-21T19:12:18.166Z,68.10
2018-10-21T19:14:51.608Z,68.17
2018-10-21T19:17:39.070Z,68.71
2018-10-21T19:20:10.283Z,69.10
2018-10-21T19:22:45.285Z,68.68
2018-10-21T19:25:18.467Z,69.16
2018-10-21T19:27:50.387Z,69.78
2018-10-21T19:30:23.575Z,69.81
2018-10-21T19:32:54.972Z,69.82
2018-10-21T19:35:30.993Z,69.86
2018-10-21T19:38:00.841Z,69.91
2018-10-21T19:40:33.074Z,70.65
2018-10-21T19:43:04.211Z,71.12
2018-10-21T19:45:36.006Z,70.91
2018-10-21T19:48:06.017Z,71.46
2018-10-21T19:50:37.886Z,71.32
2018-10-21T19:53:08.142Z,71.24
2018-10-21T19:55:38.348Z,71.14
2018-10-21T19:58:07.771Z,71.46
2018-10-21T20:00:41.927Z,71.55
2018-10-21T20:03:13.458Z,71.73
2018-10-21T20:05:46.838Z,71.75
2018-10-21T20:08:18.549Z,71.99
2018-10-21T20:10:49.622Z,72.37
2018-10-21T20:13:20.666Z,72.96
2018-10-21T20:15:52.291Z,72.69
2018-10-21T20:18:22.069Z,73.72
2018-10-21T20:20:51.781Z,73.88
2018-10-21T20:23:21.689Z,74.00
2018-10-21T20:25:50.899Z,74.10
2018-10-21T20:28:20.017Z,73.75
2018-10-21T20:30:49.032Z,73.99
2018-10-21T20:33:17.879Z,74.19
2018-10-21T20:35:49.327Z,74.41
2018-10-21T20:38:21.214Z,74.53
2018-10-21T20:40:53.042Z,74.65
2018-10-21T20:43:22.249Z,74.39
2018-10-21T20:45:53.826Z,74.77
2018-10-21T20:48:25.725Z,75.07
2018-10-21T20:50:56.250Z,74.96
2018-10-21T20:53:29.820Z,75.38
2018-10-21T20:56:01.657Z,75.29
2018-10-21T20:58:37.510Z,75.30
2018-10-21T21:01:07.519Z,75.26
2018-10-21T21:03:39.230Z,74.39
2018-10-21T21:06:08.269Z,74.13
2018-10-21T21:08:37.220Z,74.06
2018-10-21T21:11:09.781Z,73.78
2018-10-21T21:13:40.988Z,73.96
2018-10-21T21:16:10.420Z,73.78
2018-10-21T21:18:40.020Z,73.86
2018-10-21T21:21:08.983Z,73.37
2018-10-21T21:23:41.773Z,73.41
2018-10-21T21:26:10.749Z,73.77
2018-10-21T21:28:41.021Z,73.92
2018-10-21T21:31:12.552Z,74.40
2018-10-21T21:33:41.789Z,74.43
2018-10-21T21:36:10.801Z,73.80
2018-10-21T21:38:39.808Z,74.17
2018-10-21T21:41:08.950Z,74.26
2018-10-21T21:43:38.462Z,74.07
2018-10-21T21:46:07.812Z,74.05
2018-10-21T21:48:36.676Z,74.61
2018-10-21T21:51:09.636Z,74.72
2018-10-21T21:53:38.542Z,74.56
2018-10-21T21:56:07.498Z,74.45
2018-10-21T21:58:36.360Z,74.87
2018-10-21T22:01:06.103Z,75.01
2018-10-21T22:03:35.646Z,74.38
2018-10-21T22:06:04.657Z,74.89
2018-10-21T22:08:33.554Z,74.58
2018-10-21T22:11:02.509Z,75.10
2018-10-21T22:13:31.781Z,75.07
2018-10-21T22:16:01.098Z,75.34
2018-10-21T22:18:31.546Z,75.35
2018-10-21T22:21:00.436Z,74.89
2018-10-21T22:23:29.652Z,75.30
2018-10-21T22:25:58.426Z,74.99
2018-10-21T22:28:27.462Z,74.98
2018-10-21T22:30:56.404Z,75.56
2018-10-21T22:33:34.951Z,75.54
2018-10-21T22:36:03.765Z,75.49
2018-10-21T22:38:32.679Z,76.07
2018-10-21T22:41:01.683Z,76.31
2018-10-21T22:43:30.709Z,76.58
2018-10-21T22:45:59.793Z,76.48
2018-10-21T22:48:30.031Z,76.87
2018-10-21T22:50:59.121Z,76.39
2018-10-21T22:53:28.977Z,75.96
2018-10-21T22:55:58.153Z,75.78
2018-10-21T22:58:27.226Z,75.67
2018-10-21T23:00:56.225Z,76.31
2018-10-21T23:03:25.152Z,76.27
2018-10-21T23:05:53.948Z,75.89
2018-10-21T23:08:22.797Z,75.96
2018-10-21T23:10:51.715Z,75.79
2018-10-21T23:13:20.509Z,75.61
2018-10-21T23:15:49.301Z,75.93
2018-10-21T23:18:18.346Z,75.74
2018-10-21T23:20:47.633Z,76.01
2018-10-21T23:23:16.647Z,76.21
2018-10-21T23:25:45.562Z,76.24
2018-10-21T23:28:14.473Z,76.01
2018-10-21T23:30:43.289Z,75.70
2018-10-21T23:33:12.073Z,75.57
2018-10-21T23:35:40.898Z,75.86
2018-10-21T23:38:09.770Z,75.97
2018-10-21T23:40:38.834Z,76.74
2018-10-21T23:43:07.739Z,76.43
2018-10-21T23:45:36.514Z,76.57
2018-10-21T23:48:05.508Z,77.09
2018-10-21T23:50:34.400Z,77.26
2018-10-21T23:53:07.495Z,77.33
2018-10-21T23:55:36.380Z,77.26
2018-10-21T23:58:05.429Z,77.85
